createdAt,value
2024-01-11T00:00:55.365Z,0.84
2024-01-11T00:01:55.373Z,0.85
2024-01-11T00:02:55.398Z,0.84
2024-01-11T00:03:55.438Z,0.83
2024-01-11T00:04:55.546Z,0.83
2024-01-11T00:05:55.526Z,0.83
2024-01-11T00:06:55.547Z,0.84
2024-01-11T00:07:55.617Z,0.83
2024-01-11T00:08:55.636Z,0.85
2024-01-11T00:09:55.702Z,0.85
2024-01-11T00:10:57.294Z,0.83
2024-01-11T00:11:55.697Z,0.83
2024-01-11T00:12:55.669Z,0.82
2024-01-11T00:13:55.797Z,0.81
2024-01-11T00:14:55.718Z,0.81
2024-01-11T00:15:55.787Z,0.78
2024-01-11T00:16:55.823Z,0.77
2024-01-11T00:17:55.908Z,0.77
2024-01-11T00:18:55.872Z,0.79
2024-01-11T00:19:55.841Z,0.79
2024-01-11T00:20:55.923Z,0.79
2024-01-11T00:21:55.916Z,0.79
2024-01-11T00:22:55.950Z,0.79
2024-01-11T00:23:55.965Z,0.80
2024-01-11T00:24:55.971Z,0.80
2024-01-11T00:25:56.055Z,0.79
2024-01-11T00:26:56.060Z,0.78
2024-01-11T00:27:56.105Z,0.78
2024-01-11T00:28:56.128Z,0.76
2024-01-11T00:29:56.146Z,0.75
2024-01-11T00:30:56.145Z,0.76
2024-01-11T00:31:56.252Z,0.75
2024-01-11T00:32:56.399Z,0.73
2024-01-11T00:33:56.357Z,0.75
2024-01-11T00:34:56.330Z,0.74
2024-01-11T00:35:56.251Z,0.76
2024-01-11T00:36:56.243Z,0.75
2024-01-11T00:37:56.367Z,0.74
2024-01-11T00:38:56.351Z,0.75
2024-01-11T00:39:56.368Z,0.76
2024-01-11T00:40:56.458Z,0.76
2024-01-11T00:41:56.446Z,0.76
2024-01-11T00:42:56.461Z,0.76
2024-01-11T00:43:56.563Z,0.76
2024-01-11T00:45:27.192Z,0.50
2024-01-11T00:46:27.212Z,0.50
2024-01-11T00:47:27.288Z,0.50
2024-01-11T00:48:27.278Z,0.50
2024-01-11T00:49:27.312Z,0.50
2024-01-11T00:50:27.267Z,0.51
2024-01-11T00:51:27.194Z,0.51
2024-01-11T00:52:27.208Z,0.51
2024-01-11T00:53:27.246Z,0.50
2024-01-11T00:54:27.177Z,0.52
2024-01-11T00:55:27.192Z,0.50
2024-01-11T00:56:27.228Z,0.51
2024-01-11T00:57:27.207Z,0.51
2024-01-11T00:58:27.222Z,0.51
2024-01-11T00:59:27.295Z,0.52
2024-01-11T01:00:27.239Z,0.51
2024-01-11T01:01:27.250Z,0.51
2024-01-11T01:02:27.402Z,0.51
2024-01-11T01:03:27.417Z,0.50
2024-01-11T01:04:27.416Z,0.51
2024-01-11T01:05:27.631Z,0.52
2024-01-11T01:06:27.589Z,0.51
2024-01-11T01:07:27.579Z,0.51
2024-01-11T01:08:27.697Z,0.52
2024-01-11T01:09:27.696Z,0.52
2024-01-11T01:10:27.791Z,0.53
2024-01-11T01:11:27.843Z,0.53
2024-01-11T01:12:27.919Z,0.53
2024-01-11T01:13:27.931Z,0.53
2024-01-11T01:14:28.052Z,0.52
2024-01-11T01:15:27.985Z,0.53
2024-01-11T01:16:28.050Z,0.51
2024-01-11T01:17:28.209Z,0.51
2024-01-11T01:18:28.170Z,0.53
2024-01-11T01:19:28.378Z,0.52
2024-01-11T01:20:28.332Z,0.52
2024-01-11T01:21:28.274Z,0.52
2024-01-11T01:22:28.322Z,0.52
2024-01-11T01:23:28.432Z,0.52
2024-01-11T01:24:28.417Z,0.52
2024-01-11T01:25:28.434Z,0.51
2024-01-11T01:26:28.521Z,0.51
2024-01-11T01:27:28.526Z,0.52
2024-01-11T01:28:28.548Z,0.52
2024-01-11T01:29:28.642Z,0.50
2024-01-11T01:30:28.687Z,0.50
2024-01-11T01:31:28.682Z,0.52
2024-01-11T01:32:28.878Z,0.51
2024-01-11T01:33:29.043Z,0.50
2024-01-11T01:34:28.894Z,0.50
2024-01-11T01:35:29.000Z,0.52
2024-01-11T01:36:28.850Z,0.50
2024-01-11T01:37:28.884Z,0.51
2024-01-11T01:38:29.052Z,0.52
2024-01-11T01:39:28.965Z,0.52
2024-01-11T01:40:29.011Z,0.50
2024-01-11T01:41:29.076Z,0.50
2024-01-11T01:42:29.082Z,0.51
2024-01-11T01:43:29.129Z,0.51
2024-01-11T01:44:29.193Z,0.51
2024-01-11T01:45:29.147Z,0.52
2024-01-11T01:46:29.230Z,0.52
2024-01-11T01:47:29.354Z,0.52
2024-01-11T01:48:29.421Z,0.52
2024-01-11T01:49:29.331Z,0.52
2024-01-11T01:50:29.369Z,0.52
2024-01-11T01:51:29.352Z,0.50
2024-01-11T01:52:29.389Z,0.52
2024-01-11T01:53:29.546Z,0.51
2024-01-11T01:54:29.455Z,0.52
2024-01-11T01:55:29.459Z,0.52
2024-01-11T01:56:29.506Z,0.50
2024-01-11T01:57:29.540Z,0.52
2024-01-11T01:58:29.578Z,0.51
2024-01-11T01:59:29.663Z,0.51
2024-01-11T02:00:29.625Z,0.52
2024-01-11T02:01:29.668Z,0.50
2024-01-11T02:02:29.733Z,0.52
2024-01-11T02:03:29.688Z,0.52
2024-01-11T02:04:29.728Z,0.51
2024-01-11T02:05:29.844Z,0.51
2024-01-11T02:06:29.887Z,0.50
2024-01-11T02:07:29.790Z,0.52
2024-01-11T02:08:29.873Z,0.52
2024-01-11T02:09:29.888Z,0.50
2024-01-11T02:10:29.896Z,0.50
2024-01-11T02:11:30.003Z,0.52
2024-01-11T02:12:29.938Z,0.51
2024-01-11T02:13:29.932Z,0.50
2024-01-11T02:14:29.998Z,0.50
2024-01-11T02:15:30.012Z,0.51
2024-01-11T02:16:30.017Z,0.51
2024-01-11T02:17:30.104Z,0.52
2024-01-11T02:18:30.176Z,0.51
2024-01-11T02:19:30.234Z,0.51
2024-01-11T02:20:30.152Z,0.51
2024-01-11T02:21:30.151Z,0.51
2024-01-11T02:22:30.147Z,0.51
2024-01-11T02:23:30.216Z,0.52
2024-01-11T02:24:30.201Z,0.51
2024-01-11T02:25:30.212Z,0.52
2024-01-11T02:26:30.253Z,0.52
2024-01-11T02:27:30.229Z,0.51
2024-01-11T02:28:30.342Z,0.52
2024-01-11T02:29:30.321Z,0.51
2024-01-11T02:30:30.345Z,0.51
2024-01-11T02:31:30.282Z,0.50
2024-01-11T02:32:30.404Z,0.50
2024-01-11T02:33:30.386Z,0.51
2024-01-11T02:34:30.679Z,0.52
2024-01-11T02:35:30.453Z,0.52
2024-01-11T02:36:30.390Z,0.51
2024-01-11T02:37:30.402Z,0.51
2024-01-11T02:38:30.479Z,0.51
2024-01-11T02:39:30.471Z,0.51
2024-01-11T02:40:30.474Z,0.52
2024-01-11T02:41:30.485Z,0.51
2024-01-11T02:42:30.497Z,0.51
2024-01-11T02:43:30.478Z,0.52
2024-01-11T02:44:30.508Z,0.51
2024-01-11T02:45:30.518Z,0.52
2024-01-11T02:46:30.528Z,0.51
2024-01-11T02:47:30.676Z,0.51
2024-01-11T02:48:30.812Z,0.51
2024-01-11T02:49:30.644Z,0.52
2024-01-11T02:50:30.601Z,0.51
2024-01-11T02:51:30.588Z,0.52
2024-01-11T02:52:30.624Z,0.52
2024-01-11T02:53:30.624Z,0.51
2024-01-11T02:54:30.655Z,0.50
2024-01-11T02:55:30.652Z,0.51
2024-01-11T02:56:30.760Z,0.51
2024-01-11T02:57:30.691Z,0.51
2024-01-11T02:58:30.679Z,0.51
2024-01-11T02:59:30.766Z,0.52
2024-01-11T03:00:30.734Z,0.51
2024-01-11T03:01:30.702Z,0.52
2024-01-11T03:02:30.820Z,0.51
2024-01-11T03:03:30.811Z,0.51
2024-01-11T03:04:30.779Z,0.51
2024-01-11T03:05:30.850Z,0.51
2024-01-11T03:06:30.781Z,0.50
2024-01-11T03:07:30.780Z,0.50
2024-01-11T03:08:30.817Z,0.50
2024-01-11T03:09:30.794Z,0.51
2024-01-11T03:10:30.836Z,0.50
2024-01-11T03:11:30.840Z,0.52
2024-01-11T03:12:30.850Z,0.51
2024-01-11T03:13:30.876Z,0.51
2024-01-11T03:14:30.863Z,0.52
2024-01-11T03:15:30.830Z,0.51
2024-01-11T03:16:30.859Z,0.51
2024-01-11T03:17:31.020Z,0.51
2024-01-11T03:18:31.028Z,0.51
2024-01-11T03:19:30.944Z,0.50
2024-01-11T03:20:31.084Z,0.52
2024-01-11T03:21:30.949Z,0.52
2024-01-11T03:22:30.955Z,0.50
2024-01-11T03:23:30.991Z,0.52
2024-01-11T03:24:30.967Z,0.50
2024-01-11T03:25:30.995Z,0.51
2024-01-11T03:26:31.013Z,0.51
2024-01-11T03:27:30.990Z,0.51
2024-01-11T03:28:31.017Z,0.51
2024-01-11T03:29:31.012Z,0.51
2024-01-11T03:30:31.020Z,0.52
2024-01-11T03:31:31.014Z,0.51
2024-01-11T03:32:31.203Z,0.52
2024-01-11T03:33:31.231Z,0.51
2024-01-11T03:34:31.213Z,0.51
2024-01-11T03:35:31.143Z,0.51
2024-01-11T03:36:31.130Z,0.51
2024-01-11T03:37:31.129Z,0.51
2024-01-11T03:38:31.182Z,0.53
2024-01-11T03:39:31.203Z,0.51
2024-01-11T03:40:31.207Z,0.51
2024-01-11T03:41:31.269Z,0.51
2024-01-11T03:42:31.229Z,0.52
2024-01-11T03:43:31.247Z,0.51
2024-01-11T03:44:31.313Z,0.51
2024-01-11T03:45:31.289Z,0.51
2024-01-11T03:46:31.322Z,0.52
2024-01-11T03:47:31.464Z,0.51
2024-01-11T03:48:31.387Z,0.51
2024-01-11T03:49:31.347Z,0.51
2024-01-11T03:50:31.362Z,0.51
2024-01-11T03:51:31.333Z,0.50
2024-01-11T03:52:31.382Z,0.51
2024-01-11T03:53:31.444Z,0.50
2024-01-11T03:54:31.462Z,0.50
2024-01-11T03:55:31.437Z,0.52
2024-01-11T03:56:31.535Z,0.52
2024-01-11T03:57:31.525Z,0.51
2024-01-11T03:58:31.500Z,0.50
2024-01-11T03:59:31.533Z,0.51
2024-01-11T04:00:31.546Z,0.51
2024-01-11T04:01:31.581Z,0.51
2024-01-11T04:02:31.693Z,0.52
2024-01-11T04:03:31.693Z,0.51
2024-01-11T04:04:31.677Z,0.52
2024-01-11T04:05:31.807Z,0.51
2024-01-11T04:06:31.763Z,0.50
2024-01-11T04:07:31.759Z,0.51
2024-01-11T04:08:31.850Z,0.51
2024-01-11T04:09:31.866Z,0.51
2024-01-11T04:10:31.934Z,0.51
2024-01-11T04:11:32.042Z,0.50
2024-01-11T04:12:31.974Z,0.50
2024-01-11T04:13:32.064Z,0.51
2024-01-11T04:14:32.182Z,0.53
2024-01-11T04:15:32.096Z,0.51
2024-01-11T04:16:32.178Z,0.51
2024-01-11T04:17:32.295Z,0.51
2024-01-11T04:18:32.327Z,0.53
2024-01-11T04:19:32.399Z,0.51
2024-01-11T04:20:32.392Z,0.51
2024-01-11T04:21:32.387Z,0.51
2024-01-11T04:22:32.460Z,0.51
2024-01-11T04:23:32.606Z,0.51
2024-01-11T04:24:32.569Z,0.51
2024-01-11T04:25:32.621Z,0.52
2024-01-11T04:26:32.709Z,0.51
2024-01-11T04:27:32.732Z,0.51
2024-01-11T04:28:32.809Z,0.51
2024-01-11T04:29:32.887Z,0.51
2024-01-11T04:30:40.600Z,0.50
2024-01-11T04:31:48.259Z,0.50
2024-01-11T04:32:48.392Z,0.50
2024-01-11T04:33:48.313Z,0.50
2024-01-11T04:34:48.201Z,0.50
2024-01-11T04:35:48.332Z,0.50
2024-01-11T04:36:48.220Z,0.51
2024-01-11T04:37:48.225Z,0.50
2024-01-11T04:38:48.225Z,0.51
2024-01-11T04:39:48.224Z,0.51
2024-01-11T04:40:48.249Z,0.52
2024-01-11T04:41:48.278Z,0.51
2024-01-11T04:42:48.224Z,0.50
2024-01-11T04:43:48.244Z,0.50
2024-01-11T04:44:48.274Z,0.50
2024-01-11T04:45:48.210Z,0.51
2024-01-11T04:46:48.228Z,0.50
2024-01-11T04:47:48.414Z,0.51
2024-01-11T04:48:48.312Z,0.51
2024-01-11T04:49:48.234Z,0.51
2024-01-11T04:50:48.368Z,0.50
2024-01-11T04:51:48.245Z,0.51
2024-01-11T04:52:48.231Z,0.51
2024-01-11T04:53:48.292Z,0.51
2024-01-11T04:54:48.229Z,0.51
2024-01-11T04:55:48.276Z,0.51
2024-01-11T04:56:48.289Z,0.51
2024-01-11T04:57:48.301Z,0.51
2024-01-11T04:58:48.273Z,0.52
2024-01-11T04:59:48.283Z,0.51
2024-01-11T05:00:48.371Z,0.53
2024-01-11T05:01:48.241Z,0.53
2024-01-11T05:02:48.399Z,0.52
2024-01-11T05:03:48.341Z,0.52
2024-01-11T05:04:48.237Z,0.52
2024-01-11T05:05:48.454Z,0.52
2024-01-11T05:06:48.353Z,0.50
2024-01-11T05:07:48.297Z,0.51
2024-01-11T05:08:48.295Z,0.51
2024-01-11T05:09:48.308Z,0.51
2024-01-11T05:10:48.273Z,0.52
2024-01-11T05:11:48.313Z,0.52
2024-01-11T05:12:48.280Z,0.52
2024-01-11T05:13:48.271Z,0.52
2024-01-11T05:14:48.297Z,0.52
2024-01-11T05:15:48.312Z,0.52
2024-01-11T05:16:48.276Z,0.52
2024-01-11T05:17:48.374Z,0.54
2024-01-11T05:18:48.354Z,0.52
2024-01-11T05:19:48.335Z,0.53
2024-01-11T05:20:48.363Z,0.52
2024-01-11T05:21:48.294Z,0.54
2024-01-11T05:22:48.291Z,0.52
2024-01-11T05:23:48.296Z,0.52
2024-01-11T05:24:48.321Z,0.54
2024-01-11T05:25:48.270Z,0.53
2024-01-11T05:26:48.444Z,0.52
2024-01-11T05:27:48.302Z,0.53
2024-01-11T05:28:48.301Z,0.53
2024-01-11T05:29:48.348Z,0.52
2024-01-11T05:30:48.335Z,0.53
2024-01-11T05:31:48.541Z,0.52
2024-01-11T05:32:48.460Z,0.52
2024-01-11T05:33:49.072Z,0.52
2024-01-11T05:34:48.430Z,0.52
2024-01-11T05:35:48.362Z,0.52
2024-01-11T05:36:48.336Z,0.53
2024-01-11T05:37:48.343Z,0.53
2024-01-11T05:38:48.296Z,0.52
2024-01-11T05:39:48.323Z,0.52
2024-01-11T05:40:48.323Z,0.52
2024-01-11T05:41:48.404Z,0.52
2024-01-11T05:42:48.315Z,0.51
2024-01-11T05:43:48.354Z,0.53
2024-01-11T05:44:48.304Z,0.51
2024-01-11T05:45:48.665Z,0.51
2024-01-11T05:46:48.309Z,0.52
2024-01-11T05:47:48.419Z,0.52
2024-01-11T05:48:48.441Z,0.51
2024-01-11T05:49:48.381Z,0.51
2024-01-11T05:50:48.329Z,0.51
2024-01-11T05:51:48.342Z,0.51
2024-01-11T05:52:48.353Z,0.52
2024-01-11T05:53:48.413Z,0.51
2024-01-11T05:54:48.472Z,0.52
2024-01-11T05:55:48.471Z,0.50
2024-01-11T05:56:48.530Z,0.51
2024-01-11T05:57:48.500Z,0.52
2024-01-11T05:58:48.534Z,0.51
2024-01-11T05:59:48.582Z,0.51
2024-01-11T06:01:11.618Z,0.51
2024-01-11T06:01:48.628Z,0.51
2024-01-11T06:02:48.639Z,0.51
2024-01-11T06:03:48.748Z,0.52
2024-01-11T06:04:49.485Z,0.52
2024-01-11T06:05:48.704Z,0.53
2024-01-11T06:06:48.639Z,0.54
2024-01-11T06:07:48.671Z,0.53
2024-01-11T06:08:48.632Z,0.52
2024-01-11T06:09:48.681Z,0.52
2024-01-11T06:10:48.691Z,0.52
2024-01-11T06:11:48.757Z,0.52
2024-01-11T06:12:48.756Z,0.52
2024-01-11T06:13:48.822Z,0.52
2024-01-11T06:14:48.959Z,0.53
2024-01-11T06:15:48.893Z,0.52
2024-01-11T06:16:48.912Z,0.51
2024-01-11T06:17:49.143Z,0.53
2024-01-11T06:18:49.009Z,0.52
2024-01-11T06:19:49.006Z,0.53
2024-01-11T06:20:49.287Z,0.52
2024-01-11T06:21:49.075Z,0.52
2024-01-11T06:22:49.070Z,0.51
2024-01-11T06:23:49.117Z,0.52
2024-01-11T06:24:49.203Z,0.52
2024-01-11T06:25:49.223Z,0.51
2024-01-11T06:26:49.282Z,0.52
2024-01-11T06:27:49.973Z,0.51
2024-01-11T06:28:49.340Z,0.51
2024-01-11T06:29:49.461Z,0.52
2024-01-11T06:30:49.494Z,0.52
2024-01-11T06:31:49.434Z,0.51
2024-01-11T06:32:49.538Z,0.51
2024-01-11T06:33:51.586Z,0.50
2024-01-11T06:34:49.614Z,0.51
2024-01-11T06:35:49.599Z,0.51
2024-01-11T06:36:49.632Z,0.52
2024-01-11T06:37:49.657Z,0.52
2024-01-11T06:38:49.754Z,0.52
2024-01-11T06:39:49.750Z,0.52
2024-01-11T06:40:50.001Z,0.50
2024-01-11T06:41:49.875Z,0.54
2024-01-11T06:42:49.875Z,0.51
2024-01-11T06:43:49.978Z,0.50
2024-01-11T06:44:50.013Z,0.52
2024-01-11T06:46:13.026Z,0.50
2024-01-11T06:46:50.004Z,0.50
2024-01-11T06:47:50.181Z,0.50
2024-01-11T06:48:50.059Z,0.50
2024-01-11T06:49:50.000Z,0.52
2024-01-11T06:50:50.633Z,0.55
2024-01-11T06:51:50.026Z,0.57
2024-01-11T06:52:51.010Z,0.57
2024-01-11T06:53:50.140Z,0.59
2024-01-11T06:54:50.169Z,0.59
2024-01-11T06:55:50.213Z,0.61
2024-01-11T06:56:50.348Z,0.62
2024-01-11T06:57:50.274Z,0.61
2024-01-11T06:58:50.295Z,0.63
2024-01-11T06:59:50.611Z,0.66
2024-01-11T07:00:50.491Z,0.68
2024-01-11T07:01:50.434Z,0.69
2024-01-11T07:02:50.600Z,0.71
2024-01-11T07:03:50.588Z,0.73
2024-01-11T07:04:50.516Z,0.74
2024-01-11T07:05:51.137Z,0.77
2024-01-11T07:06:50.612Z,0.77
2024-01-11T07:07:50.650Z,0.77
2024-01-11T07:08:50.759Z,0.78
2024-01-11T07:09:50.687Z,0.81
2024-01-11T07:10:52.164Z,0.81
2024-01-11T07:11:50.794Z,0.83
2024-01-11T07:12:50.724Z,0.84
2024-01-11T07:13:50.735Z,0.84
2024-01-11T07:14:50.782Z,0.83
2024-01-11T07:15:51.057Z,0.84
2024-01-11T07:16:50.843Z,0.84
2024-01-11T07:17:50.989Z,0.86
2024-01-11T07:18:50.867Z,0.90
2024-01-11T07:19:51.568Z,0.90
2024-01-11T07:20:50.866Z,0.89
2024-01-11T07:21:50.856Z,0.91
2024-01-11T07:22:50.852Z,0.91
2024-01-11T07:23:50.906Z,0.91
2024-01-11T07:24:50.855Z,0.92
2024-01-11T07:25:50.865Z,0.94
2024-01-11T07:26:50.902Z,0.94
2024-01-11T07:27:50.870Z,0.92
2024-01-11T07:28:50.933Z,0.94
2024-01-11T07:29:51.027Z,0.96
2024-01-11T07:30:51.000Z,0.99
2024-01-11T07:31:50.949Z,1.01
2024-01-11T07:32:51.244Z,1.00
2024-01-11T07:33:51.105Z,1.00
2024-01-11T07:34:51.035Z,1.01
2024-01-11T07:35:51.623Z,1.02
2024-01-11T07:36:51.045Z,1.04
2024-01-11T07:37:51.102Z,1.05
2024-01-11T07:38:51.190Z,1.03
2024-01-11T07:39:51.132Z,1.03
2024-01-11T07:40:51.529Z,1.02
2024-01-11T07:41:52.070Z,1.01
2024-01-11T07:42:51.208Z,1.01
2024-01-11T07:43:54.472Z,1.00
2024-01-11T07:44:51.369Z,1.02
2024-01-11T07:45:52.038Z,1.01
2024-01-11T07:46:54.395Z,1.03
2024-01-11T07:47:51.342Z,1.03
2024-01-11T07:48:51.364Z,1.03
2024-01-11T07:49:51.290Z,1.01
2024-01-11T07:50:51.308Z,1.01
2024-01-11T07:51:51.244Z,1.00
2024-01-11T07:52:51.267Z,1.01
2024-01-11T07:53:51.272Z,1.00
2024-01-11T07:54:51.269Z,1.01
2024-01-11T07:55:51.374Z,1.03
2024-01-11T07:56:51.327Z,1.04
2024-01-11T07:57:51.297Z,1.04
2024-01-11T07:58:51.247Z,1.07
2024-01-11T07:59:51.350Z,1.11
2024-01-11T08:00:51.451Z,1.10
2024-01-11T08:01:51.424Z,1.11
2024-01-11T08:02:51.528Z,1.13
2024-01-11T08:03:51.582Z,1.18
2024-01-11T08:04:51.609Z,1.18
2024-01-11T08:05:52.109Z,1.20
2024-01-11T08:06:51.772Z,1.24
2024-01-11T08:07:51.815Z,1.27
2024-01-11T08:08:51.901Z,1.28
2024-01-11T08:09:51.902Z,1.31
2024-01-11T08:10:51.898Z,1.32
2024-01-11T08:11:53.148Z,1.35
2024-01-11T08:12:52.001Z,1.37
2024-01-11T08:13:52.075Z,1.41
2024-01-11T08:14:52.250Z,1.44
2024-01-11T08:15:52.135Z,1.48
2024-01-11T08:16:52.191Z,1.49
2024-01-11T08:17:52.440Z,1.51
2024-01-11T08:18:52.346Z,1.54
2024-01-11T08:19:52.335Z,1.57
2024-01-11T08:20:52.514Z,1.58
2024-01-11T08:21:52.398Z,1.61
2024-01-11T08:22:52.483Z,1.65
2024-01-11T08:23:52.558Z,1.65
2024-01-11T08:24:53.725Z,1.67
2024-01-11T08:25:52.621Z,1.70
2024-01-11T08:26:52.719Z,1.69
2024-01-11T08:27:52.722Z,1.72
2024-01-11T08:28:52.739Z,1.75
2024-01-11T08:29:52.775Z,1.78
2024-01-11T08:30:53.140Z,1.78
2024-01-11T08:31:52.838Z,1.78
2024-01-11T08:32:53.006Z,1.83
2024-01-11T08:33:53.207Z,1.86
2024-01-11T08:34:53.139Z,1.88
2024-01-11T08:35:53.063Z,1.92
2024-01-11T08:36:53.053Z,1.95
2024-01-11T08:37:53.165Z,1.96
2024-01-11T08:38:53.204Z,1.98
2024-01-11T08:39:53.248Z,1.97
2024-01-11T08:40:53.290Z,1.96
2024-01-11T08:41:53.356Z,1.96
2024-01-11T08:42:53.373Z,1.97
2024-01-11T08:43:53.426Z,1.95
2024-01-11T08:44:53.500Z,1.96
2024-01-11T08:45:53.514Z,2.00
2024-01-11T08:46:53.562Z,1.97
2024-01-11T08:47:53.760Z,1.98
2024-01-11T08:48:53.658Z,1.96
2024-01-11T08:49:53.657Z,1.97
2024-01-11T08:50:53.781Z,2.01
2024-01-11T08:51:53.729Z,1.96
2024-01-11T08:52:53.811Z,1.96
2024-01-11T08:53:53.843Z,2.01
2024-01-11T08:54:53.869Z,1.99
2024-01-11T08:55:53.899Z,2.03
2024-01-11T08:56:53.947Z,2.01
2024-01-11T08:57:53.965Z,2.04
2024-01-11T08:58:53.999Z,2.03
2024-01-11T08:59:54.073Z,2.06
2024-01-11T09:00:54.105Z,2.06
2024-01-11T09:02:02.339Z,2.10
2024-01-11T09:02:55.093Z,2.10
2024-01-11T09:03:54.133Z,2.10
2024-01-11T09:04:54.057Z,2.13
2024-01-11T09:05:54.192Z,2.16
2024-01-11T09:06:54.089Z,2.25
2024-01-11T09:07:54.600Z,2.25
2024-01-11T09:08:54.148Z,2.26
2024-01-11T09:09:57.143Z,2.25
2024-01-11T09:10:54.151Z,2.26
2024-01-11T09:11:54.067Z,2.27
2024-01-11T09:12:54.103Z,2.30
2024-01-11T09:13:54.093Z,2.33
2024-01-11T09:14:54.227Z,2.41
2024-01-11T09:15:54.198Z,2.43
2024-01-11T09:16:54.157Z,2.45
2024-01-11T09:17:54.221Z,2.47
2024-01-11T09:18:54.139Z,2.49
2024-01-11T09:19:54.142Z,2.49
2024-01-11T09:20:54.253Z,2.50
2024-01-11T09:21:54.131Z,2.54
2024-01-11T09:22:54.122Z,2.57
2024-01-11T09:23:54.111Z,2.53
2024-01-11T09:24:54.125Z,2.56
2024-01-11T09:25:54.129Z,2.55
2024-01-11T09:26:54.136Z,2.56
2024-01-11T09:27:54.144Z,2.59
2024-01-11T09:28:54.104Z,2.63
2024-01-11T09:29:56.864Z,2.67
2024-01-11T09:30:54.179Z,2.67
2024-01-11T09:31:54.613Z,2.64
2024-01-11T09:32:54.280Z,2.66
2024-01-11T09:33:54.339Z,2.72
2024-01-11T09:34:54.095Z,2.74
2024-01-11T09:35:54.195Z,2.83
2024-01-11T09:36:54.182Z,2.82
2024-01-11T09:37:54.118Z,2.83
2024-01-11T09:38:54.211Z,2.77
2024-01-11T09:39:54.174Z,2.77
2024-01-11T09:40:54.151Z,2.78
2024-01-11T09:41:54.173Z,2.75
2024-01-11T09:42:54.151Z,2.69
2024-01-11T09:43:54.193Z,2.66
2024-01-11T09:44:54.163Z,2.59
2024-01-11T09:45:54.187Z,2.56
2024-01-11T09:46:54.599Z,2.56
2024-01-11T09:47:54.463Z,2.52
2024-01-11T09:48:54.198Z,2.43
2024-01-11T09:49:54.119Z,2.42
2024-01-11T09:50:54.127Z,2.34
2024-01-11T09:51:54.148Z,2.34
2024-01-11T09:52:54.184Z,2.35
2024-01-11T09:53:54.147Z,2.30
2024-01-11T09:54:54.127Z,2.14
2024-01-11T09:55:54.130Z,2.01
2024-01-11T09:56:54.136Z,1.91
2024-01-11T09:57:54.185Z,1.88
2024-01-11T09:58:54.167Z,1.84
2024-01-11T09:59:54.236Z,1.87
2024-01-11T10:00:54.172Z,1.85
2024-01-11T10:01:54.583Z,1.81
2024-01-11T10:02:54.364Z,1.75
2024-01-11T10:03:54.256Z,1.71
2024-01-11T10:04:54.187Z,1.68
2024-01-11T10:05:54.236Z,1.65
2024-01-11T10:06:54.204Z,1.58
2024-01-11T10:07:54.172Z,1.60
2024-01-11T10:08:54.170Z,1.58
2024-01-11T10:09:54.194Z,1.54
2024-01-11T10:10:54.261Z,1.54
2024-01-11T10:11:54.237Z,1.52
2024-01-11T10:12:54.201Z,1.52
2024-01-11T10:13:54.155Z,1.48
2024-01-11T10:14:54.574Z,1.53
2024-01-11T10:15:54.156Z,1.51
2024-01-11T10:16:54.178Z,1.53
2024-01-11T10:17:54.434Z,1.52
2024-01-11T10:18:54.351Z,1.52
2024-01-11T10:19:54.438Z,1.50
2024-01-11T10:20:54.268Z,1.49
2024-01-11T10:21:54.631Z,1.55
2024-01-11T10:22:57.143Z,1.56
2024-01-11T10:23:54.214Z,1.65
2024-01-11T10:24:54.229Z,1.63
2024-01-11T10:25:54.185Z,1.62
2024-01-11T10:26:54.190Z,1.73
2024-01-11T10:27:54.251Z,1.88
2024-01-11T10:28:54.233Z,1.95
2024-01-11T10:29:54.230Z,1.98
2024-01-11T10:30:54.222Z,1.97
2024-01-11T10:31:54.643Z,1.94
2024-01-11T10:32:54.277Z,1.97
2024-01-11T10:33:54.310Z,2.03
2024-01-11T10:34:54.206Z,2.01
2024-01-11T10:35:54.293Z,1.89
2024-01-11T10:36:54.636Z,1.65
2024-01-11T10:37:54.226Z,1.51
2024-01-11T10:38:54.201Z,1.54
2024-01-11T10:39:54.193Z,1.46
2024-01-11T10:40:54.192Z,1.37
2024-01-11T10:41:54.712Z,1.35
2024-01-11T10:42:54.260Z,1.37
2024-01-11T10:43:54.322Z,1.39
2024-01-11T10:44:54.217Z,1.27
2024-01-11T10:45:54.235Z,1.23
2024-01-11T10:46:54.611Z,1.29
2024-01-11T10:47:54.362Z,1.32
2024-01-11T10:48:54.308Z,1.26
2024-01-11T10:49:54.247Z,1.22
2024-01-11T10:50:54.232Z,1.17
2024-01-11T10:51:54.244Z,1.15
2024-01-11T10:52:54.259Z,1.13
2024-01-11T10:53:54.277Z,1.09
2024-01-11T10:54:54.253Z,1.05
2024-01-11T10:55:54.222Z,1.03
2024-01-11T10:56:54.280Z,0.99
2024-01-11T10:57:54.233Z,0.97
2024-01-11T10:58:54.281Z,0.93
2024-01-11T10:59:55.131Z,0.91
2024-01-11T11:00:54.250Z,0.91
2024-01-11T11:01:54.234Z,0.86
2024-01-11T11:02:54.388Z,0.82
2024-01-11T11:03:54.298Z,0.82
2024-01-11T11:04:54.256Z,0.85
2024-01-11T11:05:54.331Z,0.84
2024-01-11T11:06:54.678Z,0.83
2024-01-11T11:07:54.256Z,0.83
2024-01-11T11:08:54.256Z,0.79
2024-01-11T11:09:55.232Z,0.72
2024-01-11T11:10:54.300Z,0.72
2024-01-11T11:11:54.232Z,0.70
2024-01-11T11:12:54.248Z,0.67
2024-01-11T11:13:54.250Z,0.66
2024-01-11T11:14:54.264Z,0.62
2024-01-11T11:15:54.266Z,0.60
2024-01-11T11:16:54.297Z,0.63
2024-01-11T11:17:54.353Z,0.63
2024-01-11T11:18:54.327Z,0.60
2024-01-11T11:19:54.256Z,0.61
2024-01-11T11:20:54.263Z,0.58
2024-01-11T11:21:54.303Z,0.60
2024-01-11T11:22:54.314Z,0.59
2024-01-11T11:23:54.277Z,0.57
2024-01-11T11:24:54.321Z,0.57
2024-01-11T11:25:54.332Z,0.63
2024-01-11T11:26:54.669Z,0.67
2024-01-11T11:27:54.297Z,0.65
2024-01-11T11:28:54.283Z,0.63
2024-01-11T11:29:54.306Z,0.63
2024-01-11T11:30:54.341Z,0.61
2024-01-11T11:31:54.721Z,0.60
2024-01-11T11:32:54.412Z,0.58
2024-01-11T11:33:54.368Z,0.59
2024-01-11T11:34:54.328Z,0.58
2024-01-11T11:35:54.342Z,0.61
2024-01-11T11:36:54.339Z,0.63
2024-01-11T11:37:54.711Z,0.69
2024-01-11T11:38:54.310Z,0.67
2024-01-11T11:39:54.314Z,0.67
2024-01-11T11:40:54.540Z,0.67
2024-01-11T11:41:54.337Z,0.65
2024-01-11T11:42:54.648Z,0.62
2024-01-11T11:43:54.310Z,0.60
2024-01-11T11:44:54.583Z,0.60
2024-01-11T11:45:54.469Z,0.57
2024-01-11T11:46:54.542Z,0.53
2024-01-11T11:47:54.747Z,0.53
2024-01-11T11:48:55.347Z,0.55
2024-01-11T11:49:54.708Z,0.53
2024-01-11T11:50:54.789Z,0.52
2024-01-11T11:51:54.825Z,0.52
2024-01-11T11:52:54.978Z,0.53
2024-01-11T11:53:54.877Z,0.55
2024-01-11T11:54:54.952Z,0.59
2024-01-11T11:55:54.994Z,0.56
2024-01-11T11:56:56.700Z,0.53
2024-01-11T11:57:55.184Z,0.55
2024-01-11T11:58:55.063Z,0.54
2024-01-11T11:59:55.291Z,0.55
2024-01-11T12:00:55.134Z,0.55
2024-01-11T12:01:55.117Z,0.56
2024-01-11T12:02:56.790Z,0.58
2024-01-11T12:03:55.300Z,0.58
2024-01-11T12:04:55.233Z,0.60
2024-01-11T12:05:55.323Z,0.64
2024-01-11T12:06:55.318Z,0.63
2024-01-11T12:07:55.693Z,0.62
2024-01-11T12:08:57.458Z,0.61
2024-01-11T12:09:55.360Z,0.61
2024-01-11T12:10:55.355Z,0.64
2024-01-11T12:12:02.618Z,0.63
2024-01-11T12:12:56.345Z,0.63
2024-01-11T12:13:55.381Z,0.61
2024-01-11T12:14:55.433Z,0.62
2024-01-11T12:15:55.388Z,0.61
2024-01-11T12:16:55.335Z,0.64
2024-01-11T12:17:55.442Z,0.65
2024-01-11T12:18:55.409Z,0.62
2024-01-11T12:19:56.966Z,0.60
2024-01-11T12:20:55.356Z,0.59
2024-01-11T12:21:55.407Z,0.60
2024-01-11T12:22:55.673Z,0.60
2024-01-11T12:23:55.475Z,0.62
2024-01-11T12:24:55.403Z,0.61
2024-01-11T12:25:55.402Z,0.65
2024-01-11T12:26:57.028Z,0.67
2024-01-11T12:27:55.665Z,0.71
2024-01-11T12:28:55.452Z,0.83
2024-01-11T12:29:59.006Z,0.82
2024-01-11T12:30:55.398Z,0.79
2024-01-11T12:31:55.347Z,0.79
2024-01-11T12:32:55.761Z,0.83
2024-01-11T12:33:55.629Z,0.89
2024-01-11T12:34:55.442Z,1.00
2024-01-11T12:35:55.497Z,1.05
2024-01-11T12:36:55.383Z,1.06
2024-01-11T12:37:55.443Z,1.04
2024-01-11T12:38:55.421Z,1.06
2024-01-11T12:39:55.377Z,1.06
2024-01-11T12:40:55.376Z,1.08
2024-01-11T12:41:55.432Z,1.09
2024-01-11T12:42:55.411Z,1.10
2024-01-11T12:43:55.415Z,1.09
2024-01-11T12:44:58.005Z,1.09
2024-01-11T12:45:55.393Z,1.10
2024-01-11T12:46:55.400Z,1.10
2024-01-11T12:47:55.512Z,1.11
2024-01-11T12:48:55.556Z,1.11
2024-01-11T12:49:55.408Z,1.12
2024-01-11T12:51:06.088Z,1.13
2024-01-11T12:51:56.416Z,1.14
2024-01-11T12:52:55.444Z,1.14
2024-01-11T12:53:55.724Z,1.14
2024-01-11T12:54:55.389Z,1.14
2024-01-11T12:55:58.274Z,1.11
2024-01-11T12:56:55.452Z,1.10
2024-01-11T12:57:55.407Z,1.08
2024-01-11T12:58:55.424Z,1.07
2024-01-11T12:59:55.405Z,1.07
2024-01-11T13:00:55.802Z,1.08
2024-01-11T13:01:55.492Z,1.08
2024-01-11T13:02:55.521Z,1.07
2024-01-11T13:03:55.442Z,1.07
2024-01-11T13:04:55.446Z,1.07
2024-01-11T13:05:55.593Z,1.05
2024-01-11T13:06:55.458Z,1.05
2024-01-11T13:07:55.444Z,1.06
2024-01-11T13:08:55.457Z,1.03
2024-01-11T13:09:55.442Z,1.05
2024-01-11T13:10:56.213Z,1.04
2024-01-11T13:11:55.463Z,0.99
2024-01-11T13:13:00.647Z,1.03
2024-01-11T13:13:56.434Z,1.00
2024-01-11T13:14:55.424Z,1.02
2024-01-11T13:15:55.423Z,1.00
2024-01-11T13:16:55.418Z,0.98
2024-01-11T13:17:55.478Z,0.99
2024-01-11T13:18:55.465Z,1.02
2024-01-11T13:19:55.646Z,1.03